sensor_id;sensor_type;location;lat;lon;timestamp;pressure;altitude;pressure_sealevel;temperature
27815;BMP280;15190;52.122;9.956;2023-01-31T00:01:11;100788.56;;;5.43
27815;BMP280;15190;52.122;9.956;2023-01-31T00:03:38;100793.88;;;5.48
27815;BMP280;15190;52.122;9.956;2023-01-31T00:06:16;100796.72;;;5.41
27815;BMP280;15190;52.122;9.956;2023-01-31T00:08:43;100800.44;;;5.46
27815;BMP280;15190;52.122;9.956;2023-01-31T00:11:09;100799.88;;;5.50
27815;BMP280;15190;52.122;9.956;2023-01-31T00:13:35;100792.34;;;5.50
27815;BMP280;15190;52.122;9.956;2023-01-31T00:16:02;100798.13;;;5.38
27815;BMP280;15190;52.122;9.956;2023-01-31T00:18:28;100806.31;;;5.46
27815;BMP280;15190;52.122;9.956;2023-01-31T00:20:54;100792.59;;;5.42
27815;BMP280;15190;52.122;9.956;2023-01-31T00:23:22;100796.94;;;5.44
27815;BMP280;15190;52.122;9.956;2023-01-31T00:25:48;100809.25;;;5.41
27815;BMP280;15190;52.122;9.956;2023-01-31T00:28:15;100804.03;;;5.38
27815;BMP280;15190;52.122;9.956;2023-01-31T00:30:40;100803.03;;;5.36
27815;BMP280;15190;52.122;9.956;2023-01-31T00:33:07;100806.31;;;5.35
27815;BMP280;15190;52.122;9.956;2023-01-31T00:35:36;100808.25;;;5.28
27815;BMP280;15190;52.122;9.956;2023-01-31T00:38:02;100816.09;;;5.32
27815;BMP280;15190;52.122;9.956;2023-01-31T00:40:28;100815.66;;;5.38
27815;BMP280;15190;52.122;9.956;2023-01-31T00:42:54;100817.00;;;5.44
27815;BMP280;15190;52.122;9.956;2023-01-31T00:45:19;100819.41;;;5.43
27815;BMP280;15190;52.122;9.956;2023-01-31T00:47:45;100817.13;;;5.45
27815;BMP280;15190;52.122;9.956;2023-01-31T00:50:13;100827.22;;;5.36
27815;BMP280;15190;52.122;9.956;2023-01-31T00:52:41;100827.91;;;5.44
27815;BMP280;15190;52.122;9.956;2023-01-31T00:55:07;100828.13;;;5.47
27815;BMP280;15190;52.122;9.956;2023-01-31T00:57:33;100833.91;;;5.46
27815;BMP280;15190;52.122;9.956;2023-01-31T00:59:58;100829.00;;;5.48
27815;BMP280;15190;52.122;9.956;2023-01-31T01:02:24;100839.69;;;5.45
27815;BMP280;15190;52.122;9.956;2023-01-31T01:04:50;100833.78;;;5.45
27815;BMP280;15190;52.122;9.956;2023-01-31T01:07:16;100844.03;;;5.48
27815;BMP280;15190;52.122;9.956;2023-01-31T01:09:43;100847.09;;;5.55
27815;BMP280;15190;52.122;9.956;2023-01-31T01:12:09;100842.50;;;5.50
27815;BMP280;15190;52.122;9.956;2023-01-31T01:14:35;100849.84;;;5.58
27815;BMP280;15190;52.122;9.956;2023-01-31T01:17:02;100844.50;;;5.65
27815;BMP280;15190;52.122;9.956;2023-01-31T01:19:28;100841.34;;;5.56
27815;BMP280;15190;52.122;9.956;2023-01-31T01:21:54;100837.53;;;5.61
27815;BMP280;15190;52.122;9.956;2023-01-31T01:24:20;100851.56;;;5.59
27815;BMP280;15190;52.122;9.956;2023-01-31T01:26:46;100847.53;;;5.50
27815;BMP280;15190;52.122;9.956;2023-01-31T01:29:12;100853.41;;;5.50
27815;BMP280;15190;52.122;9.956;2023-01-31T01:31:39;100863.13;;;5.57
27815;BMP280;15190;52.122;9.956;2023-01-31T01:34:07;100860.19;;;5.51
27815;BMP280;15190;52.122;9.956;2023-01-31T01:36:37;100855.19;;;5.63
27815;BMP280;15190;52.122;9.956;2023-01-31T01:39:05;100858.53;;;5.52
27815;BMP280;15190;52.122;9.956;2023-01-31T01:41:32;100866.91;;;5.41
27815;BMP280;15190;52.122;9.956;2023-01-31T01:43:59;100857.13;;;5.33
27815;BMP280;15190;52.122;9.956;2023-01-31T01:51:31;100875.84;;;5.38
27815;BMP280;15190;52.122;9.956;2023-01-31T01:54:02;100871.19;;;5.42
27815;BMP280;15190;52.122;9.956;2023-01-31T01:56:32;100865.50;;;5.44
27815;BMP280;15190;52.122;9.956;2023-01-31T01:59:07;100862.38;;;5.47
27815;BMP280;15190;52.122;9.956;2023-01-31T02:01:36;100871.50;;;5.46
27815;BMP280;15190;52.122;9.956;2023-01-31T02:04:04;100867.16;;;5.44
27815;BMP280;15190;52.122;9.956;2023-01-31T02:06:31;100865.50;;;5.44
27815;BMP280;15190;52.122;9.956;2023-01-31T02:08:58;100873.59;;;5.52
27815;BMP280;15190;52.122;9.956;2023-01-31T02:11:26;100884.19;;;5.59
27815;BMP280;15190;52.122;9.956;2023-01-31T02:13:59;100891.72;;;5.59
27815;BMP280;15190;52.122;9.956;2023-01-31T02:16:25;100888.22;;;5.57
27815;BMP280;15190;52.122;9.956;2023-01-31T02:18:51;100899.16;;;5.58
27815;BMP280;15190;52.122;9.956;2023-01-31T02:35:09;100897.38;;;5.45
27815;BMP280;15190;52.122;9.956;2023-01-31T02:40:25;100904.22;;;5.48
27815;BMP280;15190;52.122;9.956;2023-01-31T02:43:18;100900.72;;;5.35
27815;BMP280;15190;52.122;9.956;2023-01-31T02:46:01;100895.72;;;5.35
27815;BMP280;15190;52.122;9.956;2023-01-31T02:48:56;100894.34;;;5.17
27815;BMP280;15190;52.122;9.956;2023-01-31T02:51:31;100915.00;;;5.14
27815;BMP280;15190;52.122;9.956;2023-01-31T02:54:08;100908.50;;;5.16
27815;BMP280;15190;52.122;9.956;2023-01-31T02:56:37;100911.22;;;5.19
27815;BMP280;15190;52.122;9.956;2023-01-31T02:59:06;100923.81;;;5.31
27815;BMP280;15190;52.122;9.956;2023-01-31T03:01:40;100911.59;;;5.24
27815;BMP280;15190;52.122;9.956;2023-01-31T03:04:10;100914.53;;;5.30
27815;BMP280;15190;52.122;9.956;2023-01-31T03:09:09;100909.97;;;5.36
27815;BMP280;15190;52.122;9.956;2023-01-31T03:11:59;100911.47;;;5.22
27815;BMP280;15190;52.122;9.956;2023-01-31T03:14:29;100915.50;;;5.20
27815;BMP280;15190;52.122;9.956;2023-01-31T03:17:07;100906.38;;;5.32
27815;BMP280;15190;52.122;9.956;2023-01-31T03:20:10;100906.91;;;5.28
27815;BMP280;15190;52.122;9.956;2023-01-31T03:22:40;100902.66;;;5.27
27815;BMP280;15190;52.122;9.956;2023-01-31T03:25:09;100907.78;;;5.29
27815;BMP280;15190;52.122;9.956;2023-01-31T03:27:37;100897.75;;;5.29
27815;BMP280;15190;52.122;9.956;2023-01-31T03:30:14;100898.28;;;5.25
27815;BMP280;15190;52.122;9.956;2023-01-31T03:32:44;100897.97;;;5.32
27815;BMP280;15190;52.122;9.956;2023-01-31T03:35:13;100883.91;;;5.34
27815;BMP280;15190;52.122;9.956;2023-01-31T03:37:44;100887.38;;;5.24
27815;BMP280;15190;52.122;9.956;2023-01-31T03:40:18;100889.34;;;5.28
27815;BMP280;15190;52.122;9.956;2023-01-31T03:45:48;100885.69;;;5.35
27815;BMP280;15190;52.122;9.956;2023-01-31T03:48:16;100880.00;;;5.37
27815;BMP280;15190;52.122;9.956;2023-01-31T03:50:49;100884.03;;;5.35
27815;BMP280;15190;52.122;9.956;2023-01-31T03:56:33;100883.91;;;5.34
27815;BMP280;15190;52.122;9.956;2023-01-31T03:59:07;100874.88;;;5.36
27815;BMP280;15190;52.122;9.956;2023-01-31T04:01:37;100874.13;;;5.37
27815;BMP280;15190;52.122;9.956;2023-01-31T04:04:11;100880.66;;;5.35
27815;BMP280;15190;52.122;9.956;2023-01-31T04:06:41;100875.66;;;5.35
27815;BMP280;15190;52.122;9.956;2023-01-31T04:09:06;100875.41;;;5.32
27815;BMP280;15190;52.122;9.956;2023-01-31T04:11:37;100878.34;;;5.26
27815;BMP280;15190;52.122;9.956;2023-01-31T04:14:03;100882.25;;;5.23
27815;BMP280;15190;52.122;9.956;2023-01-31T04:16:29;100874.72;;;5.23
27815;BMP280;15190;52.122;9.956;2023-01-31T04:18:55;100869.28;;;5.17
27815;BMP280;15190;52.122;9.956;2023-01-31T04:21:21;100878.44;;;5.16
27815;BMP280;15190;52.122;9.956;2023-01-31T04:23:47;100872.06;;;5.10
27815;BMP280;15190;52.122;9.956;2023-01-31T04:26:13;100874.13;;;5.04
27815;BMP280;15190;52.122;9.956;2023-01-31T04:28:40;100876.63;;;5.04
27815;BMP280;15190;52.122;9.956;2023-01-31T04:31:05;100881.84;;;5.07
27815;BMP280;15190;52.122;9.956;2023-01-31T04:33:31;100880.97;;;4.95
27815;BMP280;15190;52.122;9.956;2023-01-31T04:35:57;100876.81;;;4.96
27815;BMP280;15190;52.122;9.956;2023-01-31T04:38:23;100888.47;;;4.95
27815;BMP280;15190;52.122;9.956;2023-01-31T04:40:49;100889.91;;;5.03
27815;BMP280;15190;52.122;9.956;2023-01-31T04:43:15;100888.59;;;4.97
27815;BMP280;15190;52.122;9.956;2023-01-31T04:45:41;100890.22;;;4.96
27815;BMP280;15190;52.122;9.956;2023-01-31T04:48:07;100883.34;;;4.94
27815;BMP280;15190;52.122;9.956;2023-01-31T04:50:33;100887.50;;;4.93
27815;BMP280;15190;52.122;9.956;2023-01-31T04:52:59;100887.78;;;4.86
27815;BMP280;15190;52.122;9.956;2023-01-31T04:55:25;100891.16;;;4.87
27815;BMP280;15190;52.122;9.956;2023-01-31T04:57:52;100893.94;;;5.01
27815;BMP280;15190;52.122;9.956;2023-01-31T05:00:18;100890.97;;;4.95
27815;BMP280;15190;52.122;9.956;2023-01-31T05:02:44;100893.78;;;4.88
27815;BMP280;15190;52.122;9.956;2023-01-31T05:05:10;100894.44;;;4.86
27815;BMP280;15190;52.122;9.956;2023-01-31T05:07:39;100886.66;;;4.83
27815;BMP280;15190;52.122;9.956;2023-01-31T05:10:05;100894.72;;;4.79
27815;BMP280;15190;52.122;9.956;2023-01-31T05:12:32;100904.63;;;4.77
27815;BMP280;15190;52.122;9.956;2023-01-31T05:14:58;100904.50;;;4.76
27815;BMP280;15190;52.122;9.956;2023-01-31T05:17:24;100907.00;;;4.76
27815;BMP280;15190;52.122;9.956;2023-01-31T05:19:51;100898.63;;;4.75
27815;BMP280;15190;52.122;9.956;2023-01-31T05:22:17;100903.38;;;4.72
27815;BMP280;15190;52.122;9.956;2023-01-31T05:24:47;100909.09;;;4.81
27815;BMP280;15190;52.122;9.956;2023-01-31T05:27:15;100897.81;;;4.86
27815;BMP280;15190;52.122;9.956;2023-01-31T05:29:41;100911.72;;;4.83
27815;BMP280;15190;52.122;9.956;2023-01-31T05:32:07;100905.44;;;4.88
27815;BMP280;15190;52.122;9.956;2023-01-31T05:34:34;100909.88;;;4.80
27815;BMP280;15190;52.122;9.956;2023-01-31T05:37:00;100909.16;;;4.71
27815;BMP280;15190;52.122;9.956;2023-01-31T05:39:27;100913.16;;;4.69
27815;BMP280;15190;52.122;9.956;2023-01-31T05:41:53;100898.22;;;4.81
27815;BMP280;15190;52.122;9.956;2023-01-31T05:44:19;100895.59;;;4.79
27815;BMP280;15190;52.122;9.956;2023-01-31T05:46:45;100891.31;;;4.78
27815;BMP280;15190;52.122;9.956;2023-01-31T05:49:11;100896.13;;;4.75
27815;BMP280;15190;52.122;9.956;2023-01-31T05:51:38;100883.50;;;4.85
27815;BMP280;15190;52.122;9.956;2023-01-31T05:54:04;100886.25;;;4.88
27815;BMP280;15190;52.122;9.956;2023-01-31T05:56:30;100882.13;;;4.89
27815;BMP280;15190;52.122;9.956;2023-01-31T05:58:56;100884.75;;;4.90
27815;BMP280;15190;52.122;9.956;2023-01-31T06:01:25;100880.72;;;4.92
27815;BMP280;15190;52.122;9.956;2023-01-31T06:03:51;100875.47;;;4.89
27815;BMP280;15190;52.122;9.956;2023-01-31T06:06:17;100882.25;;;4.90
27815;BMP280;15190;52.122;9.956;2023-01-31T06:08:43;100885.00;;;4.93
27815;BMP280;15190;52.122;9.956;2023-01-31T06:11:11;100878.34;;;4.94
27815;BMP280;15190;52.122;9.956;2023-01-31T06:13:38;100885.56;;;5.01
27815;BMP280;15190;52.122;9.956;2023-01-31T06:16:04;100867.31;;;4.92
27815;BMP280;15190;52.122;9.956;2023-01-31T06:18:30;100864.94;;;4.93
27815;BMP280;15190;52.122;9.956;2023-01-31T06:20:56;100865.69;;;4.92
27815;BMP280;15190;52.122;9.956;2023-01-31T06:23:22;100867.13;;;5.00
27815;BMP280;15190;52.122;9.956;2023-01-31T06:25:50;100876.63;;;5.04
27815;BMP280;15190;52.122;9.956;2023-01-31T06:28:17;100875.00;;;5.04
27815;BMP280;15190;52.122;9.956;2023-01-31T06:30:43;100868.59;;;5.08
27815;BMP280;15190;52.122;9.956;2023-01-31T06:33:09;100873.72;;;5.09
27815;BMP280;15190;52.122;9.956;2023-01-31T06:35:36;100865.78;;;5.15
27815;BMP280;15190;52.122;9.956;2023-01-31T06:38:02;100868.84;;;5.22
27815;BMP280;15190;52.122;9.956;2023-01-31T06:40:27;100868.00;;;5.22
27815;BMP280;15190;52.122;9.956;2023-01-31T06:42:53;100867.75;;;5.19
27815;BMP280;15190;52.122;9.956;2023-01-31T06:45:19;100863.19;;;5.25
27815;BMP280;15190;52.122;9.956;2023-01-31T06:47:45;100865.38;;;5.32
27815;BMP280;15190;52.122;9.956;2023-01-31T06:50:11;100858.97;;;5.35
27815;BMP280;15190;52.122;9.956;2023-01-31T06:52:41;100856.69;;;5.38
27815;BMP280;15190;52.122;9.956;2023-01-31T06:55:07;100853.75;;;5.43
27815;BMP280;15190;52.122;9.956;2023-01-31T06:57:33;100845.56;;;5.46
27815;BMP280;15190;52.122;9.956;2023-01-31T06:59:59;100847.53;;;5.50
27815;BMP280;15190;52.122;9.956;2023-01-31T07:02:25;100841.75;;;5.51
27815;BMP280;15190;52.122;9.956;2023-01-31T07:04:51;100841.75;;;5.51
27815;BMP280;15190;52.122;9.956;2023-01-31T07:07:17;100843.06;;;5.57
27815;BMP280;15190;52.122;9.956;2023-01-31T07:09:43;100838.28;;;5.60
27815;BMP280;15190;52.122;9.956;2023-01-31T07:12:09;100828.91;;;5.58
27815;BMP280;15190;52.122;9.956;2023-01-31T07:14:35;100837.41;;;5.60
27815;BMP280;15190;52.122;9.956;2023-01-31T07:17:01;100817.47;;;5.61
27815;BMP280;15190;52.122;9.956;2023-01-31T07:19:27;100830.75;;;5.60
27815;BMP280;15190;52.122;9.956;2023-01-31T07:21:54;100822.47;;;5.61
27815;BMP280;15190;52.122;9.956;2023-01-31T07:24:20;100815.03;;;5.63
27815;BMP280;15190;52.122;9.956;2023-01-31T07:26:46;100810.25;;;5.66
27815;BMP280;15190;52.122;9.956;2023-01-31T07:29:12;100800.44;;;5.69
27815;BMP280;15190;52.122;9.956;2023-01-31T07:31:38;100795.88;;;5.75
27815;BMP280;15190;52.122;9.956;2023-01-31T07:34:04;100786.59;;;5.74
27815;BMP280;15190;52.122;9.956;2023-01-31T07:36:30;100772.88;;;5.80
27815;BMP280;15190;52.122;9.956;2023-01-31T07:38:57;100777.03;;;5.80
27815;BMP280;15190;52.122;9.956;2023-01-31T07:41:23;100773.72;;;5.81
27815;BMP280;15190;52.122;9.956;2023-01-31T07:43:50;100762.50;;;5.87
27815;BMP280;15190;52.122;9.956;2023-01-31T07:46:16;100760.09;;;5.88
27815;BMP280;15190;52.122;9.956;2023-01-31T07:48:42;100749.28;;;5.89
27815;BMP280;15190;52.122;9.956;2023-01-31T07:51:09;100755.50;;;5.94
27815;BMP280;15190;52.122;9.956;2023-01-31T07:53:38;100765.31;;;5.91
27815;BMP280;15190;52.122;9.956;2023-01-31T07:56:10;100751.34;;;5.95
27815;BMP280;15190;52.122;9.956;2023-01-31T07:58:37;100748.63;;;6.03
27815;BMP280;15190;52.122;9.956;2023-01-31T08:01:03;100743.25;;;5.99
27815;BMP280;15190;52.122;9.956;2023-01-31T08:03:48;100740.00;;;6.00
27815;BMP280;15190;52.122;9.956;2023-01-31T08:06:14;100731.34;;;6.08
27815;BMP280;15190;52.122;9.956;2023-01-31T08:08:41;100741.59;;;6.11
27815;BMP280;15190;52.122;9.956;2023-01-31T08:11:07;100747.59;;;6.13
27815;BMP280;15190;52.122;9.956;2023-01-31T08:13:34;100739.50;;;6.17
27815;BMP280;15190;52.122;9.956;2023-01-31T08:16:01;100744.97;;;6.11
27815;BMP280;15190;52.122;9.956;2023-01-31T08:18:27;100746.41;;;6.08
27815;BMP280;15190;52.122;9.956;2023-01-31T08:20:55;100741.91;;;6.15
27815;BMP280;15190;52.122;9.956;2023-01-31T08:23:21;100733.84;;;6.19
27815;BMP280;15190;52.122;9.956;2023-01-31T08:25:47;100735.56;;;6.20
27815;BMP280;15190;52.122;9.956;2023-01-31T08:28:13;100732.16;;;6.31
27815;BMP280;15190;52.122;9.956;2023-01-31T08:30:41;100725.78;;;6.36
27815;BMP280;15190;52.122;9.956;2023-01-31T08:33:08;100724.00;;;6.46
27815;BMP280;15190;52.122;9.956;2023-01-31T08:35:35;100694.84;;;6.48
27815;BMP280;15190;52.122;9.956;2023-01-31T08:38:00;100702.41;;;6.61
27815;BMP280;15190;52.122;9.956;2023-01-31T08:40:26;100692.38;;;6.61
27815;BMP280;15190;52.122;9.956;2023-01-31T08:42:54;100686.66;;;6.63
27815;BMP280;15190;52.122;9.956;2023-01-31T08:45:20;100684.25;;;6.65
27815;BMP280;15190;52.122;9.956;2023-01-31T08:47:46;100691.19;;;6.56
27815;BMP280;15190;52.122;9.956;2023-01-31T08:50:12;100683.28;;;6.63
27815;BMP280;15190;52.122;9.956;2023-01-31T08:52:37;100683.06;;;6.60
27815;BMP280;15190;52.122;9.956;2023-01-31T08:55:04;100679.22;;;6.65
27815;BMP280;15190;52.122;9.956;2023-01-31T08:57:30;100688.53;;;6.66
27815;BMP280;15190;52.122;9.956;2023-01-31T08:59:56;100672.88;;;6.70
27815;BMP280;15190;52.122;9.956;2023-01-31T09:02:22;100655.97;;;6.67
27815;BMP280;15190;52.122;9.956;2023-01-31T09:04:48;100661.28;;;6.72
27815;BMP280;15190;52.122;9.956;2023-01-31T09:07:14;100665.56;;;6.86
27815;BMP280;15190;52.122;9.956;2023-01-31T09:09:40;100650.88;;;6.92
27815;BMP280;15190;52.122;9.956;2023-01-31T09:12:06;100650.66;;;7.01
27815;BMP280;15190;52.122;9.956;2023-01-31T09:14:32;100640.06;;;6.93
27815;BMP280;15190;52.122;9.956;2023-01-31T09:16:58;100629.69;;;6.88
27815;BMP280;15190;52.122;9.956;2023-01-31T09:19:23;100637.44;;;6.91
27815;BMP280;15190;52.122;9.956;2023-01-31T09:21:49;100627.75;;;6.97
27815;BMP280;15190;52.122;9.956;2023-01-31T09:24:15;100638.09;;;6.89
27815;BMP280;15190;52.122;9.956;2023-01-31T09:26:41;100629.97;;;6.80
27815;BMP280;15190;52.122;9.956;2023-01-31T09:29:07;100624.28;;;6.82
27815;BMP280;15190;52.122;9.956;2023-01-31T09:31:33;100624.28;;;6.82
27815;BMP280;15190;52.122;9.956;2023-01-31T09:33:59;100616.53;;;6.92
27815;BMP280;15190;52.122;9.956;2023-01-31T09:36:25;100618.94;;;6.91
27815;BMP280;15190;52.122;9.956;2023-01-31T09:38:53;100614.72;;;6.90
27815;BMP280;15190;52.122;9.956;2023-01-31T09:41:38;100616.91;;;6.85
27815;BMP280;15190;52.122;9.956;2023-01-31T09:44:19;100617.22;;;6.90
27815;BMP280;15190;52.122;9.956;2023-01-31T09:46:51;100604.44;;;6.87
27815;BMP280;15190;52.122;9.956;2023-01-31T09:49:26;100598.25;;;6.82
27815;BMP280;15190;52.122;9.956;2023-01-31T09:52:02;100609.78;;;6.78
27815;BMP280;15190;52.122;9.956;2023-01-31T09:54:34;100611.22;;;6.75
27815;BMP280;15190;52.122;9.956;2023-01-31T09:57:20;100622.00;;;6.61
27815;BMP280;15190;52.122;9.956;2023-01-31T10:02:42;100606.22;;;6.38
27815;BMP280;15190;52.122;9.956;2023-01-31T10:10:51;100605.00;;;6.20
27815;BMP280;15190;52.122;9.956;2023-01-31T10:13:33;100604.50;;;6.13
27815;BMP280;15190;52.122;9.956;2023-01-31T10:18:41;100593.03;;;5.92
27815;BMP280;15190;52.122;9.956;2023-01-31T10:21:30;100581.38;;;5.81
27815;BMP280;15190;52.122;9.956;2023-01-31T10:24:10;100572.13;;;5.80
27815;BMP280;15190;52.122;9.956;2023-01-31T10:26:39;100567.22;;;5.82
27815;BMP280;15190;52.122;9.956;2023-01-31T10:29:16;100579.31;;;5.76
27815;BMP280;15190;52.122;9.956;2023-01-31T10:34:25;100583.03;;;5.69
27815;BMP280;15190;52.122;9.956;2023-01-31T10:37:00;100576.72;;;5.63
27815;BMP280;15190;52.122;9.956;2023-01-31T10:39:32;100571.25;;;5.68
27815;BMP280;15190;52.122;9.956;2023-01-31T10:42:29;100577.81;;;5.66
27815;BMP280;15190;52.122;9.956;2023-01-31T10:47:33;100572.78;;;5.66
27815;BMP280;15190;52.122;9.956;2023-01-31T10:50:00;100561.03;;;5.65
27815;BMP280;15190;52.122;9.956;2023-01-31T10:52:44;100560.25;;;5.66
27815;BMP280;15190;52.122;9.956;2023-01-31T10:57:58;100540.81;;;5.75
27815;BMP280;15190;52.122;9.956;2023-01-31T11:00:29;100539.72;;;5.83
27815;BMP280;15190;52.122;9.956;2023-01-31T11:03:03;100526.59;;;5.87
27815;BMP280;15190;52.122;9.956;2023-01-31T11:05:29;100504.63;;;5.96
27815;BMP280;15190;52.122;9.956;2023-01-31T11:08:00;100503.84;;;5.97
27815;BMP280;15190;52.122;9.956;2023-01-31T11:10:31;100490.31;;;5.95
27815;BMP280;15190;52.122;9.956;2023-01-31T11:13:02;100472.19;;;5.99
27815;BMP280;15190;52.122;9.956;2023-01-31T11:15:39;100461.97;;;6.09
27815;BMP280;15190;52.122;9.956;2023-01-31T11:18:13;100456.47;;;6.14
27815;BMP280;15190;52.122;9.956;2023-01-31T11:20:46;100450.78;;;6.17
27815;BMP280;15190;52.122;9.956;2023-01-31T11:23:15;100449.72;;;6.13
27815;BMP280;15190;52.122;9.956;2023-01-31T11:25:49;100450.66;;;6.15
27815;BMP280;15190;52.122;9.956;2023-01-31T11:28:22;100448.19;;;6.28
27815;BMP280;15190;52.122;9.956;2023-01-31T11:30:51;100440.56;;;6.26
27815;BMP280;15190;52.122;9.956;2023-01-31T11:33:48;100438.44;;;6.32
27815;BMP280;15190;52.122;9.956;2023-01-31T11:36:20;100443.94;;;6.40
27815;BMP280;15190;52.122;9.956;2023-01-31T11:38:49;100432.75;;;6.48
27815;BMP280;15190;52.122;9.956;2023-01-31T11:41:34;100424.41;;;6.49
27815;BMP280;15190;52.122;9.956;2023-01-31T11:44:18;100424.50;;;6.50
27815;BMP280;15190;52.122;9.956;2023-01-31T11:46:53;100418.22;;;6.57
27815;BMP280;15190;52.122;9.956;2023-01-31T11:49:36;100406.25;;;6.53
27815;BMP280;15190;52.122;9.956;2023-01-31T11:52:19;100415.31;;;6.51
27815;BMP280;15190;52.122;9.956;2023-01-31T11:54:50;100404.53;;;6.52
27815;BMP280;15190;52.122;9.956;2023-01-31T11:57:22;100414.25;;;6.60
27815;BMP280;15190;52.122;9.956;2023-01-31T11:59:50;100426.53;;;6.56
27815;BMP280;15190;52.122;9.956;2023-01-31T12:04:51;100417.75;;;6.49
27815;BMP280;15190;52.122;9.956;2023-01-31T12:07:23;100417.66;;;6.48
27815;BMP280;15190;52.122;9.956;2023-01-31T12:09:49;100401.91;;;6.50
27815;BMP280;15190;52.122;9.956;2023-01-31T12:12:28;100403.25;;;6.45
27815;BMP280;15190;52.122;9.956;2023-01-31T12:15:13;100406.72;;;6.47
27815;BMP280;15190;52.122;9.956;2023-01-31T12:17:41;100397.75;;;6.38
27815;BMP280;15190;52.122;9.956;2023-01-31T12:22:53;100382.69;;;6.38
27815;BMP280;15190;52.122;9.956;2023-01-31T12:28:40;100384.63;;;6.42
27815;BMP280;15190;52.122;9.956;2023-01-31T12:33:51;100362.31;;;6.46
27815;BMP280;15190;52.122;9.956;2023-01-31T12:36:26;100359.59;;;6.43
27815;BMP280;15190;52.122;9.956;2023-01-31T12:44:35;100353.88;;;6.46
27815;BMP280;15190;52.122;9.956;2023-01-31T12:47:28;100353.03;;;6.45
27815;BMP280;15190;52.122;9.956;2023-01-31T12:53:09;100366.53;;;6.47
27815;BMP280;15190;52.122;9.956;2023-01-31T12:55:46;100364.72;;;6.45
27815;BMP280;15190;52.122;9.956;2023-01-31T12:58:22;100385.97;;;6.50
27815;BMP280;15190;52.122;9.956;2023-01-31T13:01:09;100376.41;;;6.44
27815;BMP280;15190;52.122;9.956;2023-01-31T13:03:51;100387.91;;;6.41
27815;BMP280;15190;52.122;9.956;2023-01-31T13:09:01;100380.38;;;6.41
27815;BMP280;15190;52.122;9.956;2023-01-31T13:14:04;100375.34;;;6.41
27815;BMP280;15190;52.122;9.956;2023-01-31T13:16:39;100375.06;;;6.36
27815;BMP280;15190;52.122;9.956;2023-01-31T13:19:17;100371.88;;;6.39
27815;BMP280;15190;52.122;9.956;2023-01-31T13:21:48;100383.94;;;6.31
27815;BMP280;15190;52.122;9.956;2023-01-31T13:24:25;100394.88;;;6.19
27815;BMP280;15190;52.122;9.956;2023-01-31T13:27:01;100398.34;;;6.21
27815;BMP280;15190;52.122;9.956;2023-01-31T13:29:32;100394.19;;;6.22
27815;BMP280;15190;52.122;9.956;2023-01-31T13:32:11;100386.78;;;6.10
27815;BMP280;15190;52.122;9.956;2023-01-31T13:34:55;100383.88;;;6.17
27815;BMP280;15190;52.122;9.956;2023-01-31T13:37:22;100384.44;;;6.13
27815;BMP280;15190;52.122;9.956;2023-01-31T13:39:57;100387.63;;;6.11
27815;BMP280;15190;52.122;9.956;2023-01-31T13:42:24;100393.34;;;6.08
27815;BMP280;15190;52.122;9.956;2023-01-31T13:44:51;100393.13;;;6.05
27815;BMP280;15190;52.122;9.956;2023-01-31T13:47:30;100396.88;;;6.12
27815;BMP280;15190;52.122;9.956;2023-01-31T13:50:03;100403.75;;;6.14
27815;BMP280;15190;52.122;9.956;2023-01-31T13:52:40;100390.91;;;6.10
27815;BMP280;15190;52.122;9.956;2023-01-31T13:55:11;100372.56;;;6.11
27815;BMP280;15190;52.122;9.956;2023-01-31T13:57:41;100383.38;;;6.10
27815;BMP280;15190;52.122;9.956;2023-01-31T14:00:39;100379.63;;;6.03
27815;BMP280;15190;52.122;9.956;2023-01-31T14:03:13;100369.19;;;6.10
27815;BMP280;15190;52.122;9.956;2023-01-31T14:10:53;100351.63;;;6.10
27815;BMP280;15190;52.122;9.956;2023-01-31T14:13:24;100350.94;;;6.13
27815;BMP280;15190;52.122;9.956;2023-01-31T14:15:53;100356.34;;;6.19
27815;BMP280;15190;52.122;9.956;2023-01-31T14:18:38;100340.22;;;6.15
27815;BMP280;15190;52.122;9.956;2023-01-31T14:24:00;100343.28;;;6.24
27815;BMP280;15190;52.122;9.956;2023-01-31T14:29:09;100349.09;;;6.36
27815;BMP280;15190;52.122;9.956;2023-01-31T14:31:55;100360.94;;;6.38
27815;BMP280;15190;52.122;9.956;2023-01-31T14:34:25;100358.16;;;6.34
27815;BMP280;15190;52.122;9.956;2023-01-31T14:37:34;100359.22;;;6.37
27815;BMP280;15190;52.122;9.956;2023-01-31T14:40:21;100344.72;;;6.46
27815;BMP280;15190;52.122;9.956;2023-01-31T14:43:53;100363.94;;;6.46
27815;BMP280;15190;52.122;9.956;2023-01-31T14:52:03;100359.22;;;6.50
27815;BMP280;15190;52.122;9.956;2023-01-31T14:57:30;100357.34;;;6.61
27815;BMP280;15190;52.122;9.956;2023-01-31T15:00:03;100353.44;;;6.65
27815;BMP280;15190;52.122;9.956;2023-01-31T15:05:21;100345.84;;;6.64
27815;BMP280;15190;52.122;9.956;2023-01-31T15:10:51;100348.72;;;6.70
27815;BMP280;15190;52.122;9.956;2023-01-31T15:13:37;100355.06;;;6.78
27815;BMP280;15190;52.122;9.956;2023-01-31T15:19:34;100357.78;;;6.81
27815;BMP280;15190;52.122;9.956;2023-01-31T15:24:02;100364.63;;;6.83
27815;BMP280;15190;52.122;9.956;2023-01-31T15:26:32;100360.56;;;6.85
27815;BMP280;15190;52.122;9.956;2023-01-31T15:29:01;100372.16;;;6.83
27815;BMP280;15190;52.122;9.956;2023-01-31T15:31:35;100374.16;;;6.89
27815;BMP280;15190;52.122;9.956;2023-01-31T15:34:27;100387.34;;;6.85
27815;BMP280;15190;52.122;9.956;2023-01-31T15:37:07;100373.66;;;6.94
27815;BMP280;15190;52.122;9.956;2023-01-31T15:39:40;100365.66;;;6.87
27815;BMP280;15190;52.122;9.956;2023-01-31T15:42:25;100363.00;;;6.84
27815;BMP280;15190;52.122;9.956;2023-01-31T15:45:22;100385.78;;;6.87
27815;BMP280;15190;52.122;9.956;2023-01-31T15:48:05;100356.31;;;6.84
27815;BMP280;15190;52.122;9.956;2023-01-31T15:50:33;100359.69;;;6.85
27815;BMP280;15190;52.122;9.956;2023-01-31T15:53:03;100355.34;;;6.82
27815;BMP280;15190;52.122;9.956;2023-01-31T15:55:33;100352.75;;;6.81
27815;BMP280;15190;52.122;9.956;2023-01-31T15:58:01;100346.41;;;6.87
27815;BMP280;15190;52.122;9.956;2023-01-31T16:00:30;100340.44;;;6.85
27815;BMP280;15190;52.122;9.956;2023-01-31T16:03:03;100341.69;;;6.92
27815;BMP280;15190;52.122;9.956;2023-01-31T16:05:31;100352.25;;;6.86
27815;BMP280;15190;52.122;9.956;2023-01-31T16:07:59;100346.41;;;6.87
27815;BMP280;15190;52.122;9.956;2023-01-31T16:10:26;100331.53;;;6.90
27815;BMP280;15190;52.122;9.956;2023-01-31T16:12:56;100306.59;;;6.93